Bagdad, Florida
Current Conditions -  °F | °C
As of 7:56 AM on Saturday 25 Oct 2014 (Local Time) from KNDZ Reporting Station
Clear Clear  
Wind Chill: 55°   Ceiling: Unl
Heat Index: 55°   Visibility: 10mi
Dew Point: 47°   Wind: 9mph
Humidity: 74%   Direction: 350°N
Pressure: 30.1"   Gusts: NA
Location:  30.6°N, 87.04°W
Report Text: KNDZ 251256Z AUTO 35008KT 10SM CLR 13/08 A3010 RMK AO2 SLP179 T01280083 $
Loading
Personal Weather Stations






























Interactive Weather Map New forecast layout! Learn more

10-Day Weather Forecast

Advertisements
Track Severe Weather on mobile